createdAt,value
2022-09-26T00:02:07.089Z,28.50
2022-09-26T00:04:41.376Z,31.00
2022-09-26T00:07:14.161Z,30.40
2022-09-26T00:09:47.483Z,32.10
2022-09-26T00:12:20.260Z,25.60
2022-09-26T00:14:53.020Z,24.30
2022-09-26T00:17:27.473Z,30.50
2022-09-26T00:20:00.304Z,27.00
2022-09-26T00:22:33.004Z,25.70
2022-09-26T00:25:06.297Z,29.70
2022-09-26T00:27:39.187Z,29.70
2022-09-26T00:30:14.320Z,33.60
2022-09-26T00:32:47.034Z,34.10
2022-09-26T00:35:20.291Z,29.80
2022-09-26T00:37:53.073Z,30.60
2022-09-26T00:40:27.413Z,29.00
2022-09-26T00:43:00.790Z,29.70
2022-09-26T00:45:34.145Z,36.30
2022-09-26T00:48:09.221Z,28.00
2022-09-26T00:50:45.075Z,27.80
2022-09-26T00:53:23.466Z,33.90
2022-09-26T00:56:03.040Z,28.70
2022-09-26T00:58:40.551Z,29.50
2022-09-26T01:01:13.505Z,30.90
2022-09-26T01:03:48.869Z,36.80
2022-09-26T01:06:22.381Z,31.80
2022-09-26T01:09:00.048Z,27.80
2022-09-26T01:11:33.243Z,33.80
2022-09-26T01:14:07.164Z,25.80
2022-09-26T01:16:42.788Z,31.00
2022-09-26T01:19:25.720Z,30.00
2022-09-26T01:22:31.422Z,29.30
2022-09-26T01:25:23.838Z,30.30
2022-09-26T01:28:30.221Z,32.80
2022-09-26T01:31:15.327Z,21.70
2022-09-26T01:34:02.009Z,24.40
2022-09-26T01:37:00.553Z,25.10
2022-09-26T01:39:47.262Z,22.40
2022-09-26T01:42:37.658Z,28.10
2022-09-26T01:45:19.145Z,28.40
2022-09-26T01:47:59.793Z,24.80
2022-09-26T01:50:39.869Z,38.00
2022-09-26T01:53:16.948Z,25.70
2022-09-26T01:55:57.107Z,31.80
2022-09-26T01:58:38.795Z,29.80
2022-09-26T02:01:15.882Z,26.00
2022-09-26T02:03:53.986Z,27.00
2022-09-26T02:06:37.474Z,33.00
2022-09-26T02:09:17.173Z,40.70
2022-09-26T02:11:53.943Z,37.70
2022-09-26T02:14:32.792Z,33.40
2022-09-26T02:17:11.493Z,36.10
2022-09-26T02:19:52.377Z,31.90
2022-09-26T02:22:25.552Z,31.90
2022-09-26T02:24:59.047Z,35.70
2022-09-26T02:27:32.265Z,37.80
2022-09-26T02:30:05.525Z,38.50
2022-09-26T02:32:40.767Z,41.00
2022-09-26T02:35:31.329Z,22.80
2022-09-26T02:38:04.681Z,25.80
2022-09-26T02:40:49.388Z,27.50
2022-09-26T02:43:44.774Z,21.70
2022-09-26T02:46:39.987Z,25.80
2022-09-26T02:49:30.656Z,26.10
2022-09-26T02:54:59.661Z,21.00
2022-09-26T02:57:45.136Z,22.50
2022-09-26T03:00:23.654Z,24.70
2022-09-26T03:03:04.035Z,22.90
2022-09-26T03:05:40.276Z,19.70
2022-09-26T03:08:17.128Z,19.20
2022-09-26T03:10:51.024Z,20.90
2022-09-26T03:13:25.872Z,20.50
2022-09-26T03:16:01.849Z,20.40
2022-09-26T03:18:54.401Z,23.60
2022-09-26T03:21:30.402Z,19.80
2022-09-26T03:24:05.734Z,25.90
2022-09-26T03:26:39.885Z,20.40
2022-09-26T03:29:15.313Z,20.90
2022-09-26T03:31:50.541Z,21.50
2022-09-26T03:34:25.236Z,24.00
2022-09-26T03:36:58.207Z,26.60
2022-09-26T03:39:31.107Z,18.00
2022-09-26T03:42:11.177Z,25.20
2022-09-26T03:44:45.431Z,27.00
2022-09-26T03:47:19.388Z,23.10
2022-09-26T03:49:57.098Z,28.40
2022-09-26T03:52:30.287Z,22.70
2022-09-26T03:55:03.260Z,30.20
2022-09-26T03:57:36.044Z,26.60
2022-09-26T04:00:19.176Z,24.20
2022-09-26T04:02:52.266Z,26.80
2022-09-26T04:05:37.016Z,27.80
2022-09-26T04:08:10.499Z,25.20
2022-09-26T04:10:44.311Z,25.80
2022-09-26T04:13:46.559Z,23.90
2022-09-26T04:16:11.767Z,25.90
2022-09-26T04:18:45.292Z,29.20
2022-09-26T04:21:19.011Z,32.90
2022-09-26T04:23:51.677Z,38.20
2022-09-26T04:26:25.708Z,28.50
2022-09-26T04:29:00.485Z,26.90
2022-09-26T04:31:51.920Z,27.40
2022-09-26T04:34:28.817Z,29.50
2022-09-26T04:37:03.120Z,23.90
2022-09-26T04:39:36.324Z,47.70
2022-09-26T04:42:09.112Z,66.20
2022-09-26T04:44:41.991Z,51.60
2022-09-26T04:47:14.881Z,35.90
2022-09-26T04:50:08.942Z,23.90
2022-09-26T04:52:41.792Z,31.60
2022-09-26T04:55:15.763Z,29.20
2022-09-26T04:57:50.095Z,26.00
2022-09-26T05:00:23.679Z,30.30
2022-09-26T05:02:56.863Z,23.90
2022-09-26T05:05:33.444Z,27.80
2022-09-26T05:08:06.595Z,24.10
2022-09-26T05:10:39.939Z,34.50
2022-09-26T05:13:14.261Z,35.10
2022-09-26T05:15:48.087Z,41.20
2022-09-26T05:18:21.513Z,39.90
2022-09-26T05:20:55.244Z,40.30
2022-09-26T05:23:46.718Z,41.10
2022-09-26T05:26:24.793Z,45.10
2022-09-26T05:29:07.037Z,34.30
2022-09-26T05:31:54.935Z,24.10
2022-09-26T05:34:28.411Z,22.80
2022-09-26T05:37:02.240Z,25.80
2022-09-26T05:39:55.092Z,29.10
2022-09-26T05:42:27.855Z,25.60
2022-09-26T05:45:03.425Z,21.50
2022-09-26T05:47:39.747Z,27.00
2022-09-26T05:50:13.750Z,25.70
2022-09-26T05:52:46.622Z,25.80
2022-09-26T05:55:25.389Z,23.30
2022-09-26T05:58:21.635Z,23.80
2022-09-26T06:01:34.043Z,18.00
2022-09-26T06:04:10.840Z,23.50
2022-09-26T06:06:54.242Z,20.30
2022-09-26T06:09:27.032Z,17.30
2022-09-26T06:11:59.703Z,24.00
2022-09-26T06:14:33.295Z,19.10
2022-09-26T06:17:05.974Z,25.60
2022-09-26T06:19:38.658Z,22.40
2022-09-26T06:22:12.670Z,19.50
2022-09-26T06:24:45.579Z,24.70
2022-09-26T06:27:21.236Z,20.60
2022-09-26T06:29:54.085Z,18.60
2022-09-26T06:32:27.381Z,25.90
2022-09-26T06:35:24.397Z,20.90
2022-09-26T06:38:15.950Z,34.70
2022-09-26T06:40:48.684Z,31.10
2022-09-26T06:43:21.874Z,32.80
2022-09-26T06:46:13.864Z,33.50
2022-09-26T06:49:01.720Z,26.80
2022-09-26T06:51:50.677Z,24.00
2022-09-26T06:54:23.986Z,23.40
2022-09-26T06:56:57.019Z,23.20
2022-09-26T06:59:29.809Z,34.80
2022-09-26T07:02:13.309Z,29.50
2022-09-26T07:05:03.030Z,26.30
2022-09-26T07:07:47.574Z,28.50
2022-09-26T07:10:30.620Z,23.40
2022-09-26T07:13:13.867Z,19.00
2022-09-26T07:15:50.809Z,23.50
2022-09-26T07:18:38.243Z,25.00
2022-09-26T07:21:43.522Z,27.00
2022-09-26T07:24:31.015Z,26.20
2022-09-26T07:27:04.319Z,23.10
2022-09-26T07:29:37.096Z,25.70
2022-09-26T07:32:10.178Z,26.20
2022-09-26T07:34:46.649Z,23.30
2022-09-26T07:37:19.614Z,25.10
2022-09-26T07:39:55.471Z,19.20
2022-09-26T07:42:30.116Z,28.40
2022-09-26T07:45:26.165Z,21.70
2022-09-26T07:48:13.837Z,18.70
2022-09-26T07:51:20.143Z,21.60
2022-09-26T07:53:55.369Z,20.60
2022-09-26T07:56:46.803Z,18.30
2022-09-26T07:59:46.211Z,18.60
2022-09-26T08:02:42.929Z,16.90
2022-09-26T08:05:21.134Z,19.20
2022-09-26T08:07:57.533Z,19.30
2022-09-26T08:11:03.667Z,17.60
2022-09-26T08:13:52.676Z,17.00
2022-09-26T08:16:39.818Z,18.30
2022-09-26T08:19:17.649Z,19.10
2022-09-26T08:21:51.299Z,18.20
2022-09-26T08:24:25.211Z,18.70
2022-09-26T08:27:16.805Z,17.20
2022-09-26T08:29:51.331Z,17.70
2022-09-26T08:32:24.692Z,20.10
2022-09-26T08:34:57.744Z,18.70
2022-09-26T08:37:50.053Z,18.40
2022-09-26T08:41:01.096Z,15.90
2022-09-26T08:44:30.478Z,16.20
2022-09-26T08:47:39.986Z,14.80
2022-09-26T08:50:45.645Z,15.50
2022-09-26T08:53:25.766Z,15.30
2022-09-26T08:56:02.137Z,16.00
2022-09-26T08:58:42.118Z,15.60
2022-09-26T09:01:22.730Z,15.20
2022-09-26T09:04:21.267Z,18.20
2022-09-26T09:07:03.790Z,17.90
2022-09-26T09:09:36.773Z,15.50
2022-09-26T09:12:32.331Z,14.80
2022-09-26T09:15:42.024Z,19.90
2022-09-26T09:18:37.136Z,18.30
2022-09-26T09:21:42.900Z,15.10
2022-09-26T09:24:50.633Z,17.30
2022-09-26T09:28:02.652Z,14.10
2022-09-26T09:30:42.874Z,18.30
2022-09-26T09:33:44.900Z,15.40
2022-09-26T09:36:46.485Z,18.40
2022-09-26T09:39:29.191Z,15.80
2022-09-26T09:42:42.110Z,13.80
2022-09-26T09:45:21.342Z,16.70
2022-09-26T09:47:54.352Z,12.70
2022-09-26T09:50:41.391Z,15.40
2022-09-26T09:53:34.799Z,15.80
2022-09-26T09:56:18.354Z,16.90
2022-09-26T09:59:11.542Z,18.40
2022-09-26T10:02:14.817Z,16.70
2022-09-26T10:04:56.406Z,15.70
2022-09-26T10:07:29.509Z,18.60
2022-09-26T10:10:46.067Z,17.10
2022-09-26T10:13:53.985Z,20.90
2022-09-26T10:17:20.741Z,21.20
2022-09-26T10:20:28.958Z,15.80
2022-09-26T10:23:02.156Z,17.00
2022-09-26T10:25:35.069Z,17.70
2022-09-26T10:28:08.025Z,17.40
2022-09-26T10:30:57.115Z,20.60
2022-09-26T10:33:34.965Z,18.70
2022-09-26T10:36:32.237Z,21.50
2022-09-26T10:39:35.647Z,19.70
2022-09-26T10:42:20.351Z,19.30
2022-09-26T10:44:58.614Z,21.10
2022-09-26T10:47:54.234Z,22.80
2022-09-26T10:50:57.231Z,23.40
2022-09-26T10:53:47.696Z,27.50
2022-09-26T10:56:27.946Z,25.80
2022-09-26T10:59:10.490Z,22.90
2022-09-26T11:01:47.799Z,24.70
2022-09-26T11:04:38.992Z,24.40
2022-09-26T11:07:41.172Z,23.40
2022-09-26T11:10:36.460Z,22.20
2022-09-26T11:13:24.334Z,19.10
2022-09-26T11:16:13.862Z,15.60
2022-09-26T11:18:58.931Z,14.70
2022-09-26T11:21:37.795Z,16.20
2022-09-26T11:24:20.290Z,14.10
2022-09-26T11:27:07.222Z,14.40
2022-09-26T11:29:49.209Z,12.80
2022-09-26T11:32:31.620Z,12.80
2022-09-26T11:35:44.538Z,13.80
2022-09-26T11:38:39.439Z,12.20
2022-09-26T11:41:38.516Z,13.30
2022-09-26T11:44:52.092Z,13.10
2022-09-26T11:48:00.972Z,15.10
2022-09-26T11:51:02.456Z,13.50
2022-09-26T11:54:02.684Z,16.90
2022-09-26T11:56:55.837Z,17.50
2022-09-26T11:59:52.895Z,18.80
2022-09-26T12:02:56.274Z,22.20
2022-09-26T12:05:44.452Z,23.10
2022-09-26T12:08:36.935Z,23.70
2022-09-26T12:11:20.929Z,28.20
2022-09-26T12:14:03.306Z,23.00
2022-09-26T12:16:48.402Z,25.40
2022-09-26T12:19:33.582Z,23.50
2022-09-26T12:22:31.260Z,23.70
2022-09-26T12:25:31.162Z,23.50
2022-09-26T12:28:20.658Z,22.70
2022-09-26T12:31:08.064Z,19.70
2022-09-26T12:34:05.702Z,21.40
2022-09-26T12:36:52.787Z,20.90
2022-09-26T12:39:55.238Z,19.40
2022-09-26T12:42:52.989Z,17.60
2022-09-26T12:45:59.695Z,16.60
2022-09-26T12:48:49.244Z,18.20
2022-09-26T12:51:33.968Z,17.00
2022-09-26T12:54:40.502Z,13.90
2022-09-26T12:57:26.264Z,15.00
2022-09-26T13:00:16.875Z,19.20
2022-09-26T13:03:50.605Z,18.90
2022-09-26T13:07:22.037Z,20.00
2022-09-26T13:10:15.532Z,18.40
2022-09-26T13:13:11.424Z,20.50
2022-09-26T13:16:05.593Z,16.40
2022-09-26T13:18:45.995Z,16.00
2022-09-26T13:21:25.693Z,19.90
2022-09-26T13:24:02.292Z,18.20
2022-09-26T13:26:45.306Z,14.10
2022-09-26T13:29:23.072Z,14.00
2022-09-26T13:32:13.167Z,12.50
2022-09-26T13:34:52.948Z,12.80
2022-09-26T13:37:45.981Z,12.80
2022-09-26T13:40:35.937Z,12.30
2022-09-26T13:43:24.520Z,13.40
2022-09-26T13:46:14.727Z,12.00
2022-09-26T13:49:01.139Z,11.50
2022-09-26T13:51:47.069Z,14.20
2022-09-26T13:54:27.460Z,9.50
2022-09-26T13:57:00.362Z,10.90
2022-09-26T13:59:56.079Z,11.60
2022-09-26T14:02:32.148Z,10.70
2022-09-26T14:05:46.559Z,10.10
2022-09-26T14:08:55.017Z,10.50
2022-09-26T14:11:46.644Z,9.30
2022-09-26T14:14:45.129Z,8.30
2022-09-26T14:18:23.417Z,10.20
2022-09-26T14:21:08.700Z,8.70
2022-09-26T14:23:50.933Z,6.60
2022-09-26T14:26:44.417Z,6.50
2022-09-26T14:29:44.847Z,6.10
2022-09-26T14:35:00.068Z,5.90
2022-09-26T14:37:40.437Z,6.90
2022-09-26T14:40:36.163Z,6.40
2022-09-26T14:43:17.742Z,6.20
2022-09-26T14:45:53.631Z,9.90
2022-09-26T14:48:38.393Z,5.60
2022-09-26T14:51:26.612Z,6.90
2022-09-26T14:54:04.507Z,5.70
2022-09-26T14:56:46.649Z,6.90
2022-09-26T14:59:43.961Z,4.40
2022-09-26T15:02:28.957Z,3.40
2022-09-26T15:05:13.134Z,2.40
2022-09-26T15:07:51.595Z,3.10
2022-09-26T15:10:41.852Z,3.80
2022-09-26T15:13:28.336Z,3.10
2022-09-26T15:16:20.755Z,3.30
2022-09-26T15:18:59.715Z,4.30
2022-09-26T15:21:40.409Z,2.70
2022-09-26T15:27:27.618Z,2.50
2022-09-26T15:30:08.583Z,3.10
2022-09-26T15:32:41.369Z,3.20
2022-09-26T15:35:16.724Z,4.70
2022-09-26T15:37:49.400Z,4.60
2022-09-26T15:40:25.019Z,3.20
2022-09-26T15:43:12.975Z,4.00
2022-09-26T15:46:04.558Z,7.20
2022-09-26T15:48:45.621Z,4.80
2022-09-26T15:51:27.480Z,5.00
2022-09-26T15:54:05.998Z,9.30
2022-09-26T15:56:46.356Z,5.40
2022-09-26T15:59:26.022Z,3.90
2022-09-26T16:02:06.107Z,6.60
2022-09-26T16:04:52.081Z,5.00
2022-09-26T16:07:28.662Z,4.10
2022-09-26T16:10:06.904Z,3.90
2022-09-26T16:12:44.277Z,5.60
2022-09-26T16:15:31.543Z,5.60
2022-09-26T16:18:07.147Z,3.90
2022-09-26T16:20:43.264Z,6.50
2022-09-26T16:23:31.104Z,6.00
2022-09-26T16:26:05.204Z,7.10
2022-09-26T16:28:52.825Z,8.80
2022-09-26T16:31:32.922Z,6.80
2022-09-26T16:34:22.413Z,13.40
2022-09-26T16:36:58.372Z,6.60
2022-09-26T16:39:33.134Z,8.30
2022-09-26T16:42:19.666Z,9.50
2022-09-26T16:44:58.073Z,16.60
2022-09-26T16:47:47.328Z,7.30
2022-09-26T16:50:31.347Z,11.40
2022-09-26T16:53:16.334Z,10.80
2022-09-26T16:55:49.358Z,15.50
2022-09-26T16:58:24.992Z,21.30
2022-09-26T17:01:16.528Z,12.80
2022-09-26T17:06:21.040Z,16.30
2022-09-26T17:08:54.025Z,13.50
2022-09-26T17:11:28.156Z,22.20
2022-09-26T17:14:01.048Z,13.10
2022-09-26T17:16:34.860Z,14.80
2022-09-26T17:19:07.744Z,11.80
2022-09-26T17:21:40.594Z,12.10
2022-09-26T17:24:19.365Z,18.00
2022-09-26T17:26:56.687Z,11.60
2022-09-26T17:29:33.487Z,16.20
2022-09-26T17:32:12.405Z,20.30
2022-09-26T17:34:46.217Z,20.40
2022-09-26T17:37:22.121Z,15.60
2022-09-26T17:39:55.545Z,21.30
2022-09-26T17:42:30.601Z,23.90
2022-09-26T17:45:03.894Z,20.10
2022-09-26T17:47:36.676Z,20.50
2022-09-26T17:50:18.578Z,21.70
2022-09-26T17:52:51.867Z,23.80
2022-09-26T17:55:24.956Z,18.60
2022-09-26T17:57:58.570Z,23.90
2022-09-26T18:00:38.709Z,24.30
2022-09-26T18:03:19.219Z,26.30
2022-09-26T18:05:52.976Z,34.80
2022-09-26T18:08:29.258Z,36.60
2022-09-26T18:11:05.502Z,26.90
2022-09-26T18:13:47.710Z,28.20
2022-09-26T18:16:21.096Z,24.20
2022-09-26T18:18:54.814Z,28.30
2022-09-26T18:21:27.694Z,25.30
2022-09-26T18:24:02.422Z,30.00
2022-09-26T18:26:42.369Z,28.50
2022-09-26T18:29:17.098Z,29.50
2022-09-26T18:31:51.211Z,20.40
2022-09-26T18:34:26.248Z,18.50
2022-09-26T18:37:00.600Z,24.00
2022-09-26T18:39:33.428Z,16.50
2022-09-26T18:42:09.730Z,45.50
2022-09-26T18:44:43.328Z,25.50
2022-09-26T18:47:19.181Z,28.30
2022-09-26T18:49:52.770Z,31.70
2022-09-26T18:52:25.966Z,25.50
2022-09-26T18:55:12.364Z,25.30
2022-09-26T18:58:02.875Z,33.30
2022-09-26T19:00:36.573Z,24.70
2022-09-26T19:03:09.466Z,24.60
2022-09-26T19:05:42.230Z,26.60
2022-09-26T19:08:33.249Z,27.80
2022-09-26T19:11:13.365Z,25.00
2022-09-26T19:13:47.778Z,33.80
2022-09-26T19:16:21.269Z,30.50
2022-09-26T19:18:54.341Z,31.90
2022-09-26T19:21:34.466Z,25.50
2022-09-26T19:24:20.971Z,23.20
2022-09-26T19:26:56.735Z,25.10
2022-09-26T19:29:36.560Z,23.80
2022-09-26T19:32:13.450Z,25.50
2022-09-26T19:34:58.210Z,22.70
2022-09-26T19:37:31.093Z,31.40
2022-09-26T19:40:07.376Z,25.90
2022-09-26T19:42:39.977Z,26.90
2022-09-26T19:45:15.129Z,22.80
2022-09-26T19:47:50.654Z,21.50
2022-09-26T19:50:26.492Z,21.60
2022-09-26T19:53:00.547Z,26.20
2022-09-26T19:55:34.088Z,24.60
2022-09-26T19:58:16.272Z,25.40
2022-09-26T20:00:52.352Z,27.60
2022-09-26T20:03:30.551Z,24.20
2022-09-26T20:06:03.132Z,27.30
2022-09-26T20:08:36.062Z,20.70
2022-09-26T20:11:09.461Z,23.70
2022-09-26T20:13:59.935Z,28.40
2022-09-26T20:19:12.240Z,27.20
2022-09-26T20:21:45.123Z,28.30
2022-09-26T20:24:20.062Z,37.40
2022-09-26T20:26:52.834Z,33.70
2022-09-26T20:29:25.616Z,37.10
2022-09-26T20:32:00.445Z,31.70
2022-09-26T20:34:33.126Z,30.40
2022-09-26T20:37:05.908Z,30.60
2022-09-26T20:39:40.439Z,29.40
2022-09-26T20:42:20.085Z,29.50
2022-09-26T20:44:53.012Z,26.60
2022-09-26T20:47:27.100Z,25.50
2022-09-26T20:50:02.236Z,28.90
2022-09-26T20:52:35.218Z,28.20
2022-09-26T20:55:14.840Z,26.80
2022-09-26T20:57:48.346Z,28.50
2022-09-26T21:00:22.678Z,26.50
2022-09-26T21:02:57.338Z,30.00
2022-09-26T21:05:31.765Z,25.60
2022-09-26T21:08:09.671Z,24.90
2022-09-26T21:10:42.594Z,20.30
2022-09-26T21:13:15.375Z,25.80
2022-09-26T21:15:48.380Z,25.90
2022-09-26T21:18:28.659Z,24.60
2022-09-26T21:21:06.376Z,27.90
2022-09-26T21:24:02.340Z,26.40
2022-09-26T21:26:35.204Z,23.50
2022-09-26T21:29:17.652Z,23.00
2022-09-26T21:31:54.374Z,26.60
2022-09-26T21:34:32.114Z,25.90
2022-09-26T21:37:05.197Z,24.80
2022-09-26T21:39:40.264Z,25.60
2022-09-26T21:42:13.121Z,25.80
2022-09-26T21:44:49.505Z,21.30
2022-09-26T21:47:22.187Z,20.60
2022-09-26T21:49:54.854Z,22.50
2022-09-26T21:52:31.414Z,23.50
2022-09-26T21:55:06.679Z,25.20
2022-09-26T21:57:42.761Z,22.00
2022-09-26T22:00:17.477Z,20.80
2022-09-26T22:02:50.394Z,22.80
2022-09-26T22:05:23.336Z,25.10
2022-09-26T22:07:56.791Z,21.00
2022-09-26T22:10:29.905Z,23.70
2022-09-26T22:13:02.786Z,31.50
2022-09-26T22:15:35.672Z,24.20
2022-09-26T22:18:09.848Z,22.80
2022-09-26T22:20:42.572Z,25.60
2022-09-26T22:23:15.253Z,23.50
2022-09-26T22:25:53.467Z,21.60
2022-09-26T22:28:26.578Z,23.20
2022-09-26T22:31:03.175Z,26.10
2022-09-26T22:33:36.449Z,20.70
2022-09-26T22:36:10.107Z,29.70
2022-09-26T22:38:42.795Z,23.20
2022-09-26T22:41:15.782Z,21.90
2022-09-26T22:43:49.586Z,25.30
2022-09-26T22:46:22.643Z,28.70
2022-09-26T22:48:55.357Z,24.20
2022-09-26T22:51:28.240Z,28.30
2022-09-26T22:54:01.186Z,23.40
2022-09-26T22:56:33.902Z,28.70
2022-09-26T22:59:06.590Z,29.40
2022-09-26T23:01:39.413Z,30.40
2022-09-26T23:04:12.566Z,33.30
2022-09-26T23:06:45.342Z,30.80
2022-09-26T23:09:18.019Z,25.80
2022-09-26T23:11:50.981Z,25.20
2022-09-26T23:14:23.712Z,26.50
2022-09-26T23:16:56.426Z,32.90
2022-09-26T23:19:29.068Z,28.20
2022-09-26T23:22:01.747Z,25.60
2022-09-26T23:24:34.410Z,30.20
2022-09-26T23:27:07.116Z,25.60
2022-09-26T23:29:40.456Z,26.90
2022-09-26T23:32:13.318Z,31.70
2022-09-26T23:34:46.164Z,30.40
2022-09-26T23:37:19.442Z,25.50
2022-09-26T23:39:52.228Z,27.20
2022-09-26T23:42:25.112Z,24.40
2022-09-26T23:44:58.202Z,22.30
2022-09-26T23:47:31.201Z,25.20
2022-09-26T23:50:04.378Z,24.30
2022-09-26T23:52:37.074Z,22.90
2022-09-26T23:55:11.765Z,25.60
2022-09-26T23:57:44.510Z,23.10
